sensor_id;sensor_type;location;lat;lon;timestamp;pressure;altitude;pressure_sealevel;temperature;humidity
40982;BME280;26708;50.304;19.028;2023-02-23T00:00:01;98289.00;;;1.58;62.78
40982;BME280;26708;50.304;19.028;2023-02-23T00:02:17;98265.22;;;1.37;62.60
40982;BME280;26708;50.304;19.028;2023-02-23T00:04:50;98205.31;;;1.14;62.44
40982;BME280;26708;50.304;19.028;2023-02-23T00:06:59;98434.03;;;2.39;62.41
40982;BME280;26708;50.304;19.028;2023-02-23T00:09:06;98422.88;;;2.40;62.34
40982;BME280;26708;50.304;19.028;2023-02-23T00:11:24;98416.03;;;2.11;62.19
40982;BME280;26708;50.304;19.028;2023-02-23T00:13:37;98416.22;;;2.17;62.34
40982;BME280;26708;50.304;19.028;2023-02-23T00:15:47;98463.63;;;2.50;62.36
40982;BME280;26708;50.304;19.028;2023-02-23T00:20:18;98259.88;;;1.31;62.06
40982;BME280;26708;50.304;19.028;2023-02-23T00:22:28;98200.31;;;0.91;62.03
40982;BME280;26708;50.304;19.028;2023-02-23T00:24:37;98483.34;;;2.48;62.06
40982;BME280;26708;50.304;19.028;2023-02-23T00:26:43;98466.94;;;2.46;62.07
40982;BME280;26708;50.304;19.028;2023-02-23T00:28:52;98456.56;;;2.45;62.24
40982;BME280;26708;50.304;19.028;2023-02-23T00:31:01;98277.31;;;1.39;62.01
40982;BME280;26708;50.304;19.028;2023-02-23T00:33:07;98396.22;;;2.10;61.96
40982;BME280;26708;50.304;19.028;2023-02-23T00:35:14;98410.59;;;2.01;61.94
40982;BME280;26708;50.304;19.028;2023-02-23T00:37:20;98452.56;;;2.25;62.11
40982;BME280;26708;50.304;19.028;2023-02-23T00:39:27;98405.91;;;1.88;62.21
40982;BME280;26708;50.304;19.028;2023-02-23T00:41:37;98353.16;;;1.47;62.14
40982;BME280;26708;50.304;19.028;2023-02-23T00:43:52;98419.06;;;1.97;62.16
40982;BME280;26708;50.304;19.028;2023-02-23T00:45:59;98452.34;;;2.17;61.78
40982;BME280;26708;50.304;19.028;2023-02-23T00:48:08;98321.06;;;1.38;61.70
40982;BME280;26708;50.304;19.028;2023-02-23T00:50:17;98395.53;;;1.86;61.48
40982;BME280;26708;50.304;19.028;2023-02-23T00:52:25;98399.97;;;1.90;61.44
40982;BME280;26708;50.304;19.028;2023-02-23T00:54:37;98204.22;;;0.77;61.28
40982;BME280;26708;50.304;19.028;2023-02-23T00:56:49;98290.59;;;1.23;61.29
40982;BME280;26708;50.304;19.028;2023-02-23T00:59:05;98271.91;;;1.02;61.03
40982;BME280;26708;50.304;19.028;2023-02-23T01:01:19;98472.91;;;2.14;60.90
40982;BME280;26708;50.304;19.028;2023-02-23T01:03:30;98393.75;;;1.84;60.82
40982;BME280;26708;50.304;19.028;2023-02-23T01:05:41;98430.75;;;1.84;60.71
40982;BME280;26708;50.304;19.028;2023-02-23T01:07:50;98458.38;;;2.18;60.76
40982;BME280;26708;50.304;19.028;2023-02-23T01:09:54;98448.00;;;2.16;60.76
40982;BME280;26708;50.304;19.028;2023-02-23T01:12:03;98339.72;;;1.59;60.30
40982;BME280;26708;50.304;19.028;2023-02-23T01:14:09;98454.34;;;2.27;60.41
40982;BME280;26708;50.304;19.028;2023-02-23T01:16:19;98461.28;;;2.30;60.12
40982;BME280;26708;50.304;19.028;2023-02-23T01:18:28;98466.31;;;2.25;59.97
40982;BME280;26708;50.304;19.028;2023-02-23T01:20:37;98262.50;;;1.03;59.90
40982;BME280;26708;50.304;19.028;2023-02-23T01:22:42;98308.63;;;1.23;60.04
40982;BME280;26708;50.304;19.028;2023-02-23T01:24:48;98433.53;;;1.92;60.16
40982;BME280;26708;50.304;19.028;2023-02-23T01:26:52;98442.66;;;2.10;60.18
40982;BME280;26708;50.304;19.028;2023-02-23T01:29:03;98355.53;;;1.41;60.11
40982;BME280;26708;50.304;19.028;2023-02-23T01:31:10;98441.84;;;2.11;60.04
40982;BME280;26708;50.304;19.028;2023-02-23T01:33:15;98435.81;;;2.11;60.06
40982;BME280;26708;50.304;19.028;2023-02-23T01:35:20;98438.28;;;2.06;60.22
40982;BME280;26708;50.304;19.028;2023-02-23T01:37:25;98321.03;;;1.36;60.11
40982;BME280;26708;50.304;19.028;2023-02-23T01:39:31;98441.69;;;2.05;60.08
40982;BME280;26708;50.304;19.028;2023-02-23T01:41:38;98405.34;;;1.68;60.15
40982;BME280;26708;50.304;19.028;2023-02-23T01:43:55;98432.84;;;1.97;60.24
40982;BME280;26708;50.304;19.028;2023-02-23T01:46:04;98427.59;;;1.94;60.31
40982;BME280;26708;50.304;19.028;2023-02-23T01:48:12;98432.97;;;2.02;60.22
40982;BME280;26708;50.304;19.028;2023-02-23T01:50:24;98257.28;;;1.01;60.02
40982;BME280;26708;50.304;19.028;2023-02-23T01:52:30;98299.34;;;1.28;60.02
40982;BME280;26708;50.304;19.028;2023-02-23T01:54:40;98260.84;;;1.05;60.03
40982;BME280;26708;50.304;19.028;2023-02-23T01:56:55;98330.38;;;1.33;60.07
40982;BME280;26708;50.304;19.028;2023-02-23T01:59:07;98398.56;;;1.72;60.47
40982;BME280;26708;50.304;19.028;2023-02-23T02:01:13;98334.78;;;1.37;60.46
40982;BME280;26708;50.304;19.028;2023-02-23T02:03:25;98396.19;;;1.79;60.44
40982;BME280;26708;50.304;19.028;2023-02-23T02:05:42;98375.00;;;1.60;60.52
40982;BME280;26708;50.304;19.028;2023-02-23T02:07:51;98400.44;;;1.77;60.64
40982;BME280;26708;50.304;19.028;2023-02-23T02:10:00;98341.78;;;1.41;60.74
40982;BME280;26708;50.304;19.028;2023-02-23T02:12:17;98236.75;;;0.75;60.85
40982;BME280;26708;50.304;19.028;2023-02-23T02:14:29;98169.53;;;0.36;60.76
40982;BME280;26708;50.304;19.028;2023-02-23T02:16:52;98147.66;;;0.23;60.88
40982;BME280;26708;50.304;19.028;2023-02-23T02:22:41;98377.38;;;1.52;60.96
40982;BME280;26708;50.304;19.028;2023-02-23T02:25:30;98205.97;;;0.50;60.85
40982;BME280;26708;50.304;19.028;2023-02-23T02:28:14;98190.31;;;0.42;60.84
40982;BME280;26708;50.304;19.028;2023-02-23T02:40:08;98303.22;;;1.14;60.65
40982;BME280;26708;50.304;19.028;2023-02-23T02:42:33;98195.09;;;0.60;60.75
40982;BME280;26708;50.304;19.028;2023-02-23T02:44:51;98388.97;;;1.68;60.91
40982;BME280;26708;50.304;19.028;2023-02-23T02:47:06;98394.00;;;1.63;60.84
40982;BME280;26708;50.304;19.028;2023-02-23T02:49:25;98382.84;;;1.63;60.91
40982;BME280;26708;50.304;19.028;2023-02-23T02:51:42;98383.56;;;1.59;61.03
40982;BME280;26708;50.304;19.028;2023-02-23T02:54:00;98234.88;;;0.69;61.12
40982;BME280;26708;50.304;19.028;2023-02-23T02:56:18;98363.28;;;1.41;61.26
40982;BME280;26708;50.304;19.028;2023-02-23T02:58:26;98380.94;;;1.57;61.18
40982;BME280;26708;50.304;19.028;2023-02-23T03:00:37;98381.88;;;1.59;61.23
40982;BME280;26708;50.304;19.028;2023-02-23T03:02:56;98356.38;;;1.40;61.23
40982;BME280;26708;50.304;19.028;2023-02-23T03:05:14;98381.00;;;1.59;61.34
40982;BME280;26708;50.304;19.028;2023-02-23T03:07:40;98302.94;;;1.05;61.32
40982;BME280;26708;50.304;19.028;2023-02-23T03:10:14;98374.03;;;1.56;61.31
40982;BME280;26708;50.304;19.028;2023-02-23T03:12:51;98257.69;;;0.85;61.64
40982;BME280;26708;50.304;19.028;2023-02-23T03:15:31;98171.97;;;0.33;61.61
40982;BME280;26708;50.304;19.028;2023-02-23T03:18:12;98379.03;;;1.50;61.82
40982;BME280;26708;50.304;19.028;2023-02-23T03:20:46;98376.41;;;1.49;61.76
40982;BME280;26708;50.304;19.028;2023-02-23T03:23:18;98216.13;;;0.45;61.69
40982;BME280;26708;50.304;19.028;2023-02-23T03:25:50;98385.94;;;1.51;61.81
40982;BME280;26708;50.304;19.028;2023-02-23T03:28:23;98352.63;;;1.31;61.76
40982;BME280;26708;50.304;19.028;2023-02-23T03:30:53;98226.00;;;0.60;61.75
40982;BME280;26708;50.304;19.028;2023-02-23T03:33:34;98271.47;;;0.87;62.04
40982;BME280;26708;50.304;19.028;2023-02-23T03:36:03;98339.72;;;1.29;61.94
40982;BME280;26708;50.304;19.028;2023-02-23T03:38:33;98333.97;;;1.10;61.97
40982;BME280;26708;50.304;19.028;2023-02-23T03:40:55;98196.91;;;0.34;61.90
40982;BME280;26708;50.304;19.028;2023-02-23T03:43:23;98282.72;;;0.91;61.72
40982;BME280;26708;50.304;19.028;2023-02-23T03:45:47;98353.47;;;1.30;61.93
40982;BME280;26708;50.304;19.028;2023-02-23T03:48:09;98273.38;;;0.93;61.85
40982;BME280;26708;50.304;19.028;2023-02-23T03:50:35;98362.34;;;1.39;62.05
40982;BME280;26708;50.304;19.028;2023-02-23T03:53:00;98188.16;;;0.29;62.09
40982;BME280;26708;50.304;19.028;2023-02-23T03:55:24;98329.78;;;1.13;62.25
40982;BME280;26708;50.304;19.028;2023-02-23T03:57:54;98186.28;;;0.24;62.50
40982;BME280;26708;50.304;19.028;2023-02-23T04:00:24;98232.66;;;0.53;62.52
40982;BME280;26708;50.304;19.028;2023-02-23T04:02:51;98336.56;;;1.10;62.61
40982;BME280;26708;50.304;19.028;2023-02-23T04:05:17;98325.22;;;1.05;62.69
40982;BME280;26708;50.304;19.028;2023-02-23T04:07:39;98310.69;;;0.79;62.66
40982;BME280;26708;50.304;19.028;2023-02-23T04:09:57;98162.41;;;0.02;62.79
40982;BME280;26708;50.304;19.028;2023-02-23T04:12:21;98295.75;;;0.69;63.25
40982;BME280;26708;50.304;19.028;2023-02-23T04:14:53;98356.13;;;1.05;63.28
40982;BME280;26708;50.304;19.028;2023-02-23T04:17:07;98326.78;;;1.00;63.12
40982;BME280;26708;50.304;19.028;2023-02-23T04:19:11;98230.38;;;0.36;63.13
40982;BME280;26708;50.304;19.028;2023-02-23T04:21:16;98323.91;;;0.89;63.35
40982;BME280;26708;50.304;19.028;2023-02-23T04:23:22;98217.50;;;0.34;63.37
40982;BME280;26708;50.304;19.028;2023-02-23T04:25:29;98332.59;;;0.93;63.22
40982;BME280;26708;50.304;19.028;2023-02-23T04:27:35;98380.91;;;1.28;63.43
40982;BME280;26708;50.304;19.028;2023-02-23T04:29:40;98347.63;;;1.07;63.22
40982;BME280;26708;50.304;19.028;2023-02-23T04:31:45;98361.91;;;1.24;63.28
40982;BME280;26708;50.304;19.028;2023-02-23T04:33:53;98292.75;;;0.82;63.12
40982;BME280;26708;50.304;19.028;2023-02-23T04:35:57;98365.50;;;1.29;63.26
40982;BME280;26708;50.304;19.028;2023-02-23T04:38:02;98334.19;;;1.17;63.24
40982;BME280;26708;50.304;19.028;2023-02-23T04:40:09;98364.84;;;1.36;63.16
40982;BME280;26708;50.304;19.028;2023-02-23T04:42:18;98365.72;;;1.37;63.28
40982;BME280;26708;50.304;19.028;2023-02-23T04:44:23;98369.25;;;1.40;63.11
40982;BME280;26708;50.304;19.028;2023-02-23T04:46:29;98264.38;;;0.80;62.94
40982;BME280;26708;50.304;19.028;2023-02-23T04:48:33;98363.25;;;1.40;62.95
40982;BME280;26708;50.304;19.028;2023-02-23T04:50:40;98254.28;;;0.58;63.08
40982;BME280;26708;50.304;19.028;2023-02-23T04:52:46;98188.31;;;0.34;63.15
40982;BME280;26708;50.304;19.028;2023-02-23T04:54:52;98363.91;;;1.34;63.21
40982;BME280;26708;50.304;19.028;2023-02-23T04:56:57;98368.16;;;1.32;63.61
40982;BME280;26708;50.304;19.028;2023-02-23T04:59:02;98244.63;;;0.51;63.35
40982;BME280;26708;50.304;19.028;2023-02-23T05:01:07;98285.84;;;0.81;63.44
40982;BME280;26708;50.304;19.028;2023-02-23T05:03:13;98362.16;;;1.32;63.31
40982;BME280;26708;50.304;19.028;2023-02-23T05:05:18;98232.28;;;0.41;63.31
40982;BME280;26708;50.304;19.028;2023-02-23T05:07:26;98366.13;;;1.22;63.48
40982;BME280;26708;50.304;19.028;2023-02-23T05:09:31;98356.56;;;1.18;63.68
40982;BME280;26708;50.304;19.028;2023-02-23T05:11:36;98362.78;;;1.25;63.73
40982;BME280;26708;50.304;19.028;2023-02-23T05:13:41;98370.59;;;1.28;63.59
40982;BME280;26708;50.304;19.028;2023-02-23T05:15:46;98325.19;;;1.03;63.55
40982;BME280;26708;50.304;19.028;2023-02-23T05:17:51;98314.66;;;0.96;63.49
40982;BME280;26708;50.304;19.028;2023-02-23T05:19:57;98359.44;;;1.27;63.61
40982;BME280;26708;50.304;19.028;2023-02-23T05:22:02;98305.06;;;0.90;63.56
40982;BME280;26708;50.304;19.028;2023-02-23T05:24:10;98146.00;;;-0.02;63.60
40982;BME280;26708;50.304;19.028;2023-02-23T05:26:16;98198.41;;;0.28;63.93
40982;BME280;26708;50.304;19.028;2023-02-23T05:28:20;98372.84;;;1.17;64.03
40982;BME280;26708;50.304;19.028;2023-02-23T05:30:26;98363.28;;;1.13;64.03
40982;BME280;26708;50.304;19.028;2023-02-23T05:32:30;98359.69;;;1.08;64.24
40982;BME280;26708;50.304;19.028;2023-02-23T05:34:35;98329.88;;;0.88;64.13
40982;BME280;26708;50.304;19.028;2023-02-23T05:36:40;98254.13;;;0.28;64.13
40982;BME280;26708;50.304;19.028;2023-02-23T05:38:46;98362.94;;;1.03;64.28
40982;BME280;26708;50.304;19.028;2023-02-23T05:40:53;98384.53;;;1.06;64.25
40982;BME280;26708;50.304;19.028;2023-02-23T05:42:59;98251.31;;;0.20;64.36
40982;BME280;26708;50.304;19.028;2023-02-23T05:45:07;98255.13;;;0.32;64.40
40982;BME280;26708;50.304;19.028;2023-02-23T05:47:12;98320.78;;;0.73;64.46
40982;BME280;26708;50.304;19.028;2023-02-23T05:49:19;98338.00;;;0.74;64.58
40982;BME280;26708;50.304;19.028;2023-02-23T05:51:25;98340.19;;;0.88;64.51
40982;BME280;26708;50.304;19.028;2023-02-23T05:53:31;98363.97;;;1.08;64.36
40982;BME280;26708;50.304;19.028;2023-02-23T05:55:37;98370.25;;;1.16;64.45
40982;BME280;26708;50.304;19.028;2023-02-23T05:57:44;98335.44;;;1.02;64.18
40982;BME280;26708;50.304;19.028;2023-02-23T05:59:50;98339.84;;;1.06;64.14
40982;BME280;26708;50.304;19.028;2023-02-23T06:01:56;98374.06;;;1.28;64.25
40982;BME280;26708;50.304;19.028;2023-02-23T06:04:00;98352.41;;;1.23;63.90
40982;BME280;26708;50.304;19.028;2023-02-23T06:06:05;98368.28;;;1.37;63.82
40982;BME280;26708;50.304;19.028;2023-02-23T06:08:11;98336.75;;;1.16;63.81
40982;BME280;26708;50.304;19.028;2023-02-23T06:10:16;98251.16;;;0.68;63.64
40982;BME280;26708;50.304;19.028;2023-02-23T06:12:21;98257.47;;;0.78;63.57
40982;BME280;26708;50.304;19.028;2023-02-23T06:14:29;98380.47;;;1.42;63.50
40982;BME280;26708;50.304;19.028;2023-02-23T06:16:35;98376.16;;;1.41;63.88
40982;BME280;26708;50.304;19.028;2023-02-23T06:18:39;98372.84;;;1.45;63.60
40982;BME280;26708;50.304;19.028;2023-02-23T06:20:45;98385.00;;;1.49;63.58
40982;BME280;26708;50.304;19.028;2023-02-23T06:22:50;98379.84;;;1.49;63.44
40982;BME280;26708;50.304;19.028;2023-02-23T06:24:54;98279.03;;;0.81;63.49
40982;BME280;26708;50.304;19.028;2023-02-23T06:27:00;98388.50;;;1.51;63.53
40982;BME280;26708;50.304;19.028;2023-02-23T06:29:05;98353.72;;;1.37;63.52
40982;BME280;26708;50.304;19.028;2023-02-23T06:31:12;98370.41;;;1.50;63.39
40982;BME280;26708;50.304;19.028;2023-02-23T06:33:18;98300.94;;;0.97;63.30
40982;BME280;26708;50.304;19.028;2023-02-23T06:35:23;98381.75;;;1.55;63.52
40982;BME280;26708;50.304;19.028;2023-02-23T06:37:28;98332.56;;;1.19;63.61
40982;BME280;26708;50.304;19.028;2023-02-23T06:39:34;98388.50;;;1.51;63.68
40982;BME280;26708;50.304;19.028;2023-02-23T06:41:38;98358.69;;;1.31;63.75
40982;BME280;26708;50.304;19.028;2023-02-23T06:43:43;98386.84;;;1.53;63.65
40982;BME280;26708;50.304;19.028;2023-02-23T06:45:49;98275.94;;;0.93;63.57
40982;BME280;26708;50.304;19.028;2023-02-23T06:47:56;98213.13;;;0.60;63.48
40982;BME280;26708;50.304;19.028;2023-02-23T06:50:01;98393.22;;;1.66;63.59
40982;BME280;26708;50.304;19.028;2023-02-23T06:52:08;98355.97;;;1.55;63.61
40982;BME280;26708;50.304;19.028;2023-02-23T06:54:14;98394.56;;;1.81;63.17
40982;BME280;26708;50.304;19.028;2023-02-23T06:56:19;98288.97;;;1.27;63.05
40982;BME280;26708;50.304;19.028;2023-02-23T06:58:25;98361.56;;;1.70;63.05
40982;BME280;26708;50.304;19.028;2023-02-23T07:00:30;98399.97;;;1.90;62.90
40982;BME280;26708;50.304;19.028;2023-02-23T07:02:34;98288.09;;;1.26;62.75
40982;BME280;26708;50.304;19.028;2023-02-23T07:04:42;98394.16;;;1.97;62.64
40982;BME280;26708;50.304;19.028;2023-02-23T07:06:47;98258.22;;;1.03;62.57
40982;BME280;26708;50.304;19.028;2023-02-23T07:08:52;98279.03;;;1.39;62.61
40982;BME280;26708;50.304;19.028;2023-02-23T07:11:06;98289.84;;;1.57;62.81
40982;BME280;26708;50.304;19.028;2023-02-23T07:13:11;98355.59;;;2.03;62.58
40982;BME280;26708;50.304;19.028;2023-02-23T07:15:16;98399.69;;;2.42;62.61
40982;BME280;26708;50.304;19.028;2023-02-23T07:17:22;98269.81;;;1.78;62.31
40982;BME280;26708;50.304;19.028;2023-02-23T07:19:27;98341.25;;;2.45;61.49
40982;BME280;26708;50.304;19.028;2023-02-23T07:21:34;98395.00;;;2.92;61.39
40982;BME280;26708;50.304;19.028;2023-02-23T07:23:39;98389.34;;;3.08;61.03
40982;BME280;26708;50.304;19.028;2023-02-23T07:25:44;98388.91;;;3.26;60.54
40982;BME280;26708;50.304;19.028;2023-02-23T07:27:49;98392.56;;;3.35;59.88
40982;BME280;26708;50.304;19.028;2023-02-23T07:29:55;98390.00;;;3.37;59.22
40982;BME280;26708;50.304;19.028;2023-02-23T07:31:59;98391.00;;;3.42;59.13
40982;BME280;26708;50.304;19.028;2023-02-23T07:34:05;98391.84;;;3.42;59.43
40982;BME280;26708;50.304;19.028;2023-02-23T07:36:12;98232.16;;;2.52;58.89
40982;BME280;26708;50.304;19.028;2023-02-23T07:38:19;98387.56;;;3.43;59.01
40982;BME280;26708;50.304;19.028;2023-02-23T07:40:24;98220.81;;;2.47;58.75
40982;BME280;26708;50.304;19.028;2023-02-23T07:42:30;98372.06;;;3.43;59.08
40982;BME280;26708;50.304;19.028;2023-02-23T07:44:34;98352.91;;;3.35;58.94
40982;BME280;26708;50.304;19.028;2023-02-23T07:46:39;98379.91;;;3.47;58.89
40982;BME280;26708;50.304;19.028;2023-02-23T07:48:44;98353.72;;;3.32;59.00
40982;BME280;26708;50.304;19.028;2023-02-23T07:50:49;98339.91;;;3.30;59.10
40982;BME280;26708;50.304;19.028;2023-02-23T07:52:53;98379.22;;;3.56;58.93
40982;BME280;26708;50.304;19.028;2023-02-23T07:55:01;98366.19;;;3.50;58.76
40982;BME280;26708;50.304;19.028;2023-02-23T07:57:06;98375.00;;;3.59;58.93
40982;BME280;26708;50.304;19.028;2023-02-23T07:59:12;98380.25;;;3.62;58.88
40982;BME280;26708;50.304;19.028;2023-02-23T08:01:18;98254.44;;;2.84;59.13
40982;BME280;26708;50.304;19.028;2023-02-23T08:03:23;98260.19;;;3.11;58.83
40982;BME280;26708;50.304;19.028;2023-02-23T08:05:28;98247.25;;;3.10;58.54
40982;BME280;26708;50.304;19.028;2023-02-23T08:07:33;98370.22;;;3.77;58.25
40982;BME280;26708;50.304;19.028;2023-02-23T08:09:38;98368.53;;;3.79;58.48
40982;BME280;26708;50.304;19.028;2023-02-23T08:11:45;98372.81;;;3.77;58.43
40982;BME280;26708;50.304;19.028;2023-02-23T08:13:50;98372.81;;;3.77;58.51
40982;BME280;26708;50.304;19.028;2023-02-23T08:15:56;98387.44;;;3.77;58.23
40982;BME280;26708;50.304;19.028;2023-02-23T08:18:03;98244.34;;;2.96;58.67
40982;BME280;26708;50.304;19.028;2023-02-23T08:20:10;98371.22;;;3.84;58.27
40982;BME280;26708;50.304;19.028;2023-02-23T08:22:14;98365.09;;;3.80;58.62
40982;BME280;26708;50.304;19.028;2023-02-23T08:24:19;98351.25;;;3.78;59.05
40982;BME280;26708;50.304;19.028;2023-02-23T08:26:25;98362.00;;;3.98;59.15
40982;BME280;26708;50.304;19.028;2023-02-23T08:28:32;98269.69;;;3.52;58.37
40982;BME280;26708;50.304;19.028;2023-02-23T08:30:37;98265.38;;;3.53;58.04
40982;BME280;26708;50.304;19.028;2023-02-23T08:32:45;98234.72;;;3.29;58.40
40982;BME280;26708;50.304;19.028;2023-02-23T08:34:50;98363.34;;;4.20;57.96
40982;BME280;26708;50.304;19.028;2023-02-23T08:36:55;98257.09;;;3.70;58.00
40982;BME280;26708;50.304;19.028;2023-02-23T08:39:01;98351.59;;;4.39;58.11
40982;BME280;26708;50.304;19.028;2023-02-23T08:41:06;98356.03;;;4.46;57.54
40982;BME280;26708;50.304;19.028;2023-02-23T08:43:11;98336.91;;;4.38;57.65
40982;BME280;26708;50.304;19.028;2023-02-23T08:45:19;98294.06;;;4.09;57.26
40982;BME280;26708;50.304;19.028;2023-02-23T08:47:24;98365.75;;;4.59;57.03
40982;BME280;26708;50.304;19.028;2023-02-23T08:49:30;98345.75;;;4.52;56.83
40982;BME280;26708;50.304;19.028;2023-02-23T08:51:36;98359.59;;;4.52;57.03
40982;BME280;26708;50.304;19.028;2023-02-23T08:53:41;98231.19;;;3.69;57.08
40982;BME280;26708;50.304;19.028;2023-02-23T08:55:46;98306.41;;;4.22;57.66
40982;BME280;26708;50.304;19.028;2023-02-23T08:57:52;98259.50;;;4.05;57.33
40982;BME280;26708;50.304;19.028;2023-02-23T08:59:57;98222.22;;;3.96;57.15
40982;BME280;26708;50.304;19.028;2023-02-23T09:02:04;98192.72;;;3.88;56.96
40982;BME280;26708;50.304;19.028;2023-02-23T09:04:11;98341.31;;;4.92;56.95
40982;BME280;26708;50.304;19.028;2023-02-23T09:06:19;98338.88;;;5.03;56.71
40982;BME280;26708;50.304;19.028;2023-02-23T09:08:25;98335.75;;;5.23;56.67
40982;BME280;26708;50.304;19.028;2023-02-23T09:10:31;98141.66;;;4.30;56.26
40982;BME280;26708;50.304;19.028;2023-02-23T09:12:35;98206.06;;;4.64;55.62
40982;BME280;26708;50.304;19.028;2023-02-23T09:14:40;98333.66;;;5.59;55.26
40982;BME280;26708;50.304;19.028;2023-02-23T09:16:45;98305.84;;;5.51;55.27
40982;BME280;26708;50.304;19.028;2023-02-23T09:18:52;98332.91;;;5.69;54.49
40982;BME280;26708;50.304;19.028;2023-02-23T09:21:06;98339.75;;;5.64;54.37
40982;BME280;26708;50.304;19.028;2023-02-23T09:23:20;98330.09;;;5.53;54.44
40982;BME280;26708;50.304;19.028;2023-02-23T09:25:28;98216.84;;;4.89;54.81
40982;BME280;26708;50.304;19.028;2023-02-23T09:27:32;98328.41;;;5.55;54.50
40982;BME280;26708;50.304;19.028;2023-02-23T09:29:38;98239.16;;;4.83;55.15
40982;BME280;26708;50.304;19.028;2023-02-23T09:31:44;98245.47;;;4.95;55.35
40982;BME280;26708;50.304;19.028;2023-02-23T09:33:54;98336.25;;;5.59;54.91
40982;BME280;26708;50.304;19.028;2023-02-23T09:36:04;98345.81;;;5.62;55.11
40982;BME280;26708;50.304;19.028;2023-02-23T09:38:09;98343.25;;;5.65;54.98
40982;BME280;26708;50.304;19.028;2023-02-23T09:40:16;98293.63;;;5.41;55.44
40982;BME280;26708;50.304;19.028;2023-02-23T09:42:37;98335.59;;;5.75;54.95
40982;BME280;26708;50.304;19.028;2023-02-23T09:45:11;98328.72;;;5.80;54.75
40982;BME280;26708;50.304;19.028;2023-02-23T09:47:32;98349.75;;;6.00;54.76
40982;BME280;26708;50.304;19.028;2023-02-23T09:49:49;98343.81;;;6.13;54.49
40982;BME280;26708;50.304;19.028;2023-02-23T09:51:58;98334.31;;;6.15;54.04
40982;BME280;26708;50.304;19.028;2023-02-23T09:54:10;98217.66;;;5.52;53.54
40982;BME280;26708;50.304;19.028;2023-02-23T09:56:28;98285.72;;;6.02;53.54
40982;BME280;26708;50.304;19.028;2023-02-23T09:58:38;98311.88;;;6.20;53.19
40982;BME280;26708;50.304;19.028;2023-02-23T10:00:55;98337.22;;;6.42;52.98
40982;BME280;26708;50.304;19.028;2023-02-23T10:03:28;98326.06;;;6.50;53.24
40982;BME280;26708;50.304;19.028;2023-02-23T10:05:53;98233.84;;;6.08;52.75
40982;BME280;26708;50.304;19.028;2023-02-23T10:08:07;98287.84;;;6.45;52.62
40982;BME280;26708;50.304;19.028;2023-02-23T10:10:29;98330.66;;;6.78;52.08
40982;BME280;26708;50.304;19.028;2023-02-23T10:12:52;98230.53;;;6.24;52.06
40982;BME280;26708;50.304;19.028;2023-02-23T10:15:15;98330.72;;;6.87;52.17
40982;BME280;26708;50.304;19.028;2023-02-23T10:17:38;98328.19;;;6.95;52.24
40982;BME280;26708;50.304;19.028;2023-02-23T10:19:59;98320.47;;;7.04;52.02
40982;BME280;26708;50.304;19.028;2023-02-23T10:22:19;98227.28;;;6.52;51.28
40982;BME280;26708;50.304;19.028;2023-02-23T10:24:31;98176.88;;;6.32;51.34
40982;BME280;26708;50.304;19.028;2023-02-23T10:26:44;98171.66;;;6.29;50.93
40982;BME280;26708;50.304;19.028;2023-02-23T10:28:57;98314.47;;;7.15;50.58
40982;BME280;26708;50.304;19.028;2023-02-23T10:31:23;98226.63;;;6.78;50.44
40982;BME280;26708;50.304;19.028;2023-02-23T10:33:35;98201.31;;;6.55;50.35
40982;BME280;26708;50.304;19.028;2023-02-23T10:35:57;98302.38;;;7.26;50.15
40982;BME280;26708;50.304;19.028;2023-02-23T10:38:17;98276.28;;;7.13;50.02
40982;BME280;26708;50.304;19.028;2023-02-23T10:40:32;98193.69;;;6.77;50.31
40982;BME280;26708;50.304;19.028;2023-02-23T10:42:38;98298.16;;;7.42;50.40
40982;BME280;26708;50.304;19.028;2023-02-23T10:44:50;98284.34;;;7.58;50.13
40982;BME280;26708;50.304;19.028;2023-02-23T10:47:00;98273.94;;;7.62;49.82
40982;BME280;26708;50.304;19.028;2023-02-23T10:49:18;98301.88;;;7.97;49.76
40982;BME280;26708;50.304;19.028;2023-02-23T10:51:35;98291.47;;;7.99;49.39
40982;BME280;26708;50.304;19.028;2023-02-23T10:53:44;98227.06;;;7.62;49.21
40982;BME280;26708;50.304;19.028;2023-02-23T10:56:04;98297.59;;;8.23;48.87
40982;BME280;26708;50.304;19.028;2023-02-23T10:58:16;98285.47;;;8.28;48.75
40982;BME280;26708;50.304;19.028;2023-02-23T11:00:29;98206.28;;;7.73;48.88
40982;BME280;26708;50.304;19.028;2023-02-23T11:02:39;98170.69;;;7.70;48.42
40982;BME280;26708;50.304;19.028;2023-02-23T11:04:51;98229.81;;;8.20;48.32
40982;BME280;26708;50.304;19.028;2023-02-23T11:07:08;98273.31;;;8.59;48.45
40982;BME280;26708;50.304;19.028;2023-02-23T11:09:28;98190.72;;;8.16;47.83
40982;BME280;26708;50.304;19.028;2023-02-23T11:11:39;98260.31;;;8.68;47.56
40982;BME280;26708;50.304;19.028;2023-02-23T11:13:45;98282.03;;;8.79;47.75
40982;BME280;26708;50.304;19.028;2023-02-23T11:16:01;98178.56;;;8.19;47.81
40982;BME280;26708;50.304;19.028;2023-02-23T11:18:21;98275.94;;;8.95;47.54
40982;BME280;26708;50.304;19.028;2023-02-23T11:20:36;98263.75;;;8.98;47.30
40982;BME280;26708;50.304;19.028;2023-02-23T11:22:46;98129.06;;;8.21;47.50
40982;BME280;26708;50.304;19.028;2023-02-23T11:25:19;98124.72;;;8.27;47.22
40982;BME280;26708;50.304;19.028;2023-02-23T11:27:32;98263.75;;;9.15;47.02
40982;BME280;26708;50.304;19.028;2023-02-23T11:29:44;98142.94;;;8.54;47.06
40982;BME280;26708;50.304;19.028;2023-02-23T11:31:57;98140.38;;;8.44;47.01
40982;BME280;26708;50.304;19.028;2023-02-23T11:34:31;98253.28;;;9.25;46.86
40982;BME280;26708;50.304;19.028;2023-02-23T11:36:40;98216.75;;;9.10;46.89
40982;BME280;26708;50.304;19.028;2023-02-23T11:39:03;98228.94;;;9.11;46.63
40982;BME280;26708;50.304;19.028;2023-02-23T11:41:27;98241.91;;;9.34;46.90
40982;BME280;26708;50.304;19.028;2023-02-23T11:43:36;98140.31;;;8.59;46.99
40982;BME280;26708;50.304;19.028;2023-02-23T11:45:46;98236.69;;;9.38;46.73
40982;BME280;26708;50.304;19.028;2023-02-23T11:47:56;98101.19;;;8.65;46.45
40982;BME280;26708;50.304;19.028;2023-02-23T11:50:03;98234.91;;;9.48;46.59